Observations for Trim Market St
| Time | AQI | Temp °C | Hum % | Pres Pa | CO μg/m³ | H₂S μg/m³ | NO μg/m³ | NO₂ μg/m³ | O₃ μg/m³ | SO₂ μg/m³ | PM1 μg/m³ | PM2.5 μg/m³ | PM10 μg/m³ |
|---|---|---|---|---|---|---|---|---|---|---|---|---|---|
| Monday 17 August 2026 | |||||||||||||
| 09:04 | 2 | 20 | 75 | 23,945 | 0.19 | 0 | 1.77 | 2.24 | 32.06 | 0 | 0 | 1.39 | 3.34 |
| 09:03 | 2 | 20 | 75 | 22,108 | 0.15 | 0 | 1.79 | 2.14 | 38 | 0 | 0 | 1.39 | 3.35 |
| 09:02 | 2 | 19.9 | 75 | 20,467 | 0.23 | 0 | 1.81 | 2.67 | 35.7 | 0 | 0.71 | 2.34 | 4.55 |
| 09:01 | 2 | 19.9 | 75 | 18,959 | 0.44 | 0 | 2.53 | 2.81 | 29.73 | 0 | 0.71 | 2.34 | 4.55 |
| 09:00 | 2 | 19.9 | 75 | 17,458 | 0.39 | 0 | 2.2 | 2.38 | 36.1 | 0 | 0.71 | 2.33 | 4.55 |
| 08:59 | 2 | 19.9 | 75 | 15,819 | 0.22 | 0 | 1.82 | 2.35 | 35.53 | 0 | 1.43 | 2.8 | 5.15 |
| 08:58 | 2 | 19.8 | 76 | 14,142 | 0.45 | 0 | 1.82 | 3.02 | 22.71 | 0 | 2.85 | 4.71 | 8.72 |
| 08:57 | 2 | 19.8 | 76 | 12,334 | 0.14 | 0 | 1.83 | 2.45 | 35.87 | 0 | 1.43 | 3.27 | 5.75 |
| 08:56 | 2 | 19.7 | 76 | 10,150 | 0.17 | 0 | 1.78 | 2.56 | 42.6 | 0 | 0 | 2.3 | 5.75 |
| 08:55 | 2 | 19.7 | 76 | 7,422 | 0.15 | 0 | 1.78 | 2.42 | 42.52 | 0 | 1.43 | 2.3 | 5.16 |
| 08:53 | 2 | 19.6 | 76 | 4,243 | 0.17 | 0 | 1.8 | 2.5 | 38.33 | 0 | 1.43 | 3.24 | 5.76 |
| 08:52 | 2 | 19.6 | 76 | 2,439 | 0.15 | 0 | 1.8 | 2.41 | 39.67 | 0 | 1.43 | 2.76 | 5.17 |
| 08:51 | 2 | 19.6 | 76 | 511 | 0.16 | 0 | 1.82 | 2.26 | 40.33 | 0 | 0 | 1.32 | 3.41 |
| 08:50 | 2 | 19.6 | 77 | 2,147,483,647 | 0.16 | 0 | 1.82 | 2.32 | 33.58 | 0 | 1.43 | 2.74 | 5.18 |
| 08:49 | 2 | 19.5 | 77 | 2,147,483,647 | 0.16 | 0 | 1.82 | 2.36 | 41.16 | 0 | 0.71 | 2.26 | 4.6 |
| 08:47 | 2 | 19.5 | 77 | 2,147,483,647 | 0.16 | 0 | 1.84 | 2.2 | 38.25 | 0 | 1.43 | 2.72 | 5.19 |
| 08:46 | 2 | 19.5 | 77 | 2,147,483,647 | 0.23 | 0 | 1.84 | 1.98 | 38.19 | 0 | 1.43 | 3.19 | 5.78 |
| 08:45 | 2 | 19.4 | 77 | 2,147,483,647 | 0.27 | 0 | 1.84 | 2.51 | 28.97 | 0 | 2.85 | 3.66 | 7.53 |
| 08:44 | 2 | 19.4 | 77 | 2,147,483,647 | 0.26 | 0 | 1.85 | 2.14 | 42.88 | 0 | 0.71 | 3.18 | 5.78 |
| 08:43 | 2 | 19.4 | 78 | 2,147,483,647 | 0.19 | 0 | 1.86 | 2.05 | 36.02 | 0 | 1.43 | 3.18 | 5.78 |